createdAt,value
2022-11-14T00:01:35.017Z,101463.56
2022-11-14T00:04:56.126Z,101474.00
2022-11-14T00:08:20.981Z,101467.72
2022-11-14T00:11:42.067Z,101467.69
2022-11-14T00:15:03.075Z,101467.81
2022-11-14T00:18:24.248Z,101473.91
2022-11-14T00:21:45.335Z,101471.25
2022-11-14T00:25:07.191Z,101470.34
2022-11-14T00:28:28.655Z,101482.81
2022-11-14T00:31:49.752Z,101480.13
2022-11-14T00:35:10.479Z,101475.81
2022-11-14T00:38:31.465Z,101472.31
2022-11-14T00:41:52.508Z,101474.97
2022-11-14T00:45:13.398Z,101472.50
2022-11-14T00:48:34.185Z,101470.00
2022-11-14T00:51:54.875Z,101462.25
2022-11-14T00:55:16.384Z,101453.47
2022-11-14T00:58:37.116Z,101444.56
2022-11-14T01:01:58.239Z,101451.75
2022-11-14T01:05:19.328Z,101442.09
2022-11-14T01:08:40.896Z,101443.09
2022-11-14T01:12:01.653Z,101451.34
2022-11-14T01:15:22.416Z,101438.28
2022-11-14T01:18:49.961Z,101431.44
2022-11-14T01:22:11.115Z,101427.09
2022-11-14T01:25:36.387Z,101438.75
2022-11-14T01:28:57.199Z,101430.84
2022-11-14T01:32:17.924Z,101423.84
2022-11-14T01:35:38.873Z,101421.19
2022-11-14T01:38:59.996Z,101415.53
2022-11-14T01:42:27.273Z,101421.62
2022-11-14T01:45:48.229Z,101415.44
2022-11-14T01:49:14.598Z,101419.56
2022-11-14T01:52:37.257Z,101416.59
2022-11-14T01:56:01.085Z,101416.53
2022-11-14T01:59:25.160Z,101410.25
2022-11-14T02:02:46.014Z,101411.16
2022-11-14T02:06:09.895Z,101413.00
2022-11-14T02:09:35.890Z,101407.63
2022-11-14T02:12:56.846Z,101399.44
2022-11-14T02:16:17.698Z,101395.94
2022-11-14T02:19:50.802Z,101397.78
2022-11-14T02:23:12.155Z,101403.16
2022-11-14T02:26:36.734Z,101394.16
2022-11-14T02:30:08.580Z,101400.44
2022-11-14T02:33:29.473Z,101396.13
2022-11-14T02:36:50.178Z,101403.41
2022-11-14T02:40:12.467Z,101403.41
2022-11-14T02:43:33.484Z,101407.00
2022-11-14T02:46:54.380Z,101406.16
2022-11-14T02:50:15.421Z,101399.09
2022-11-14T02:53:36.790Z,101414.19
2022-11-14T02:56:58.187Z,101394.62
2022-11-14T03:00:19.440Z,101389.41
2022-11-14T03:03:40.366Z,101387.50
2022-11-14T03:07:01.099Z,101385.78
2022-11-14T03:10:23.322Z,101389.41
2022-11-14T03:13:44.218Z,101389.41
2022-11-14T03:17:04.946Z,101390.31
2022-11-14T03:20:25.865Z,101385.00
2022-11-14T03:23:47.330Z,101388.53
2022-11-14T03:27:08.580Z,101384.97
2022-11-14T03:30:29.439Z,101386.81
2022-11-14T03:33:50.004Z,101378.66
2022-11-14T03:37:10.843Z,101382.13
2022-11-14T03:40:31.553Z,101366.84
2022-11-14T03:43:52.324Z,101374.97
2022-11-14T03:47:12.987Z,101376.75
2022-11-14T03:50:35.672Z,101370.59
2022-11-14T03:53:56.588Z,101367.00
2022-11-14T03:57:25.928Z,101355.34
2022-11-14T04:00:46.907Z,101362.41
2022-11-14T04:04:08.278Z,101361.34
2022-11-14T04:07:29.358Z,101344.44
2022-11-14T04:10:50.586Z,101342.59
2022-11-14T04:14:11.479Z,101341.63
2022-11-14T04:17:37.028Z,101341.53
2022-11-14T04:21:00.814Z,101341.53
2022-11-14T04:24:21.769Z,101345.16
2022-11-14T04:27:43.451Z,101335.31
2022-11-14T04:31:04.296Z,101335.25
2022-11-14T04:34:25.216Z,101339.75
2022-11-14T04:37:46.187Z,101327.28
2022-11-14T04:41:06.982Z,101327.38
2022-11-14T04:44:27.646Z,101329.16
2022-11-14T04:47:48.441Z,101332.69
2022-11-14T04:51:09.112Z,101331.78
2022-11-14T04:54:29.991Z,101325.50
2022-11-14T04:57:56.111Z,101324.59
2022-11-14T05:01:16.919Z,101323.84
2022-11-14T05:04:39.209Z,101322.03
2022-11-14T05:07:59.918Z,101322.03
2022-11-14T05:11:26.589Z,101316.62
2022-11-14T05:14:50.152Z,101315.56
2022-11-14T05:18:11.022Z,101331.56
2022-11-14T05:21:33.672Z,101323.44
2022-11-14T05:24:54.774Z,101321.66
2022-11-14T05:28:16.110Z,101311.81
2022-11-14T05:31:36.825Z,101316.13
2022-11-14T05:34:57.480Z,101314.16
2022-11-14T05:38:18.227Z,101320.34
2022-11-14T05:41:39.262Z,101319.47
2022-11-14T05:45:00.329Z,101312.34
2022-11-14T05:48:21.411Z,101324.59
2022-11-14T05:51:42.179Z,101332.59
2022-11-14T05:55:03.220Z,101326.38
2022-11-14T05:58:24.422Z,101322.75
2022-11-14T06:01:45.481Z,101320.03
2022-11-14T06:05:07.068Z,101329.88
2022-11-14T06:08:29.981Z,101321.09
2022-11-14T06:11:51.315Z,101317.53
2022-11-14T06:15:12.758Z,101313.16
2022-11-14T06:18:34.723Z,101315.00
2022-11-14T06:21:55.584Z,101277.87
2022-11-14T06:25:16.599Z,101313.44
2022-11-14T06:28:37.873Z,101325.00
2022-11-14T06:31:58.607Z,101321.63
2022-11-14T06:35:19.253Z,101301.06
2022-11-14T06:38:41.105Z,101321.84
2022-11-14T06:42:01.996Z,101326.41
2022-11-14T06:45:22.957Z,101330.16
2022-11-14T06:48:44.873Z,101329.44
2022-11-14T06:52:06.138Z,101333.09
2022-11-14T06:55:27.906Z,101326.09
2022-11-14T07:02:16.434Z,101332.66
2022-11-14T07:05:40.233Z,101331.78
2022-11-14T07:09:02.859Z,101334.69
2022-11-14T07:12:23.903Z,101311.37
2022-11-14T07:15:54.556Z,101335.84
2022-11-14T07:19:17.733Z,101344.31
2022-11-14T07:22:39.373Z,101349.72
2022-11-14T07:26:07.064Z,101349.13
2022-11-14T07:29:28.576Z,101341.16
2022-11-14T07:32:57.561Z,101361.41
2022-11-14T07:36:18.756Z,101358.78
2022-11-14T07:39:40.009Z,101362.19
2022-11-14T07:43:01.597Z,101336.34
2022-11-14T07:46:22.615Z,101333.88
2022-11-14T07:49:44.335Z,101343.34
2022-11-14T07:53:06.624Z,101350.72
2022-11-14T07:56:27.903Z,101319.22
2022-11-14T07:59:49.417Z,101348.87
2022-11-14T08:03:11.080Z,101340.00
2022-11-14T08:06:32.074Z,101359.03
2022-11-14T08:09:54.519Z,101316.03
2022-11-14T08:13:33.210Z,101343.31
2022-11-14T08:16:54.472Z,101344.50
2022-11-14T08:20:17.714Z,101340.66
2022-11-14T08:23:38.887Z,101333.91
2022-11-14T08:27:00.003Z,101318.91
2022-11-14T08:30:21.316Z,101323.81
2022-11-14T08:33:42.447Z,101327.44
2022-11-14T08:37:03.514Z,101322.94
2022-11-14T08:40:25.052Z,101321.84
2022-11-14T08:43:46.400Z,101318.50
2022-11-14T08:47:07.695Z,101321.94
2022-11-14T08:50:28.958Z,101316.59
2022-11-14T08:53:52.408Z,101327.12
2022-11-14T08:57:15.355Z,101319.81
2022-11-14T09:00:36.873Z,101322.47
2022-11-14T09:04:00.008Z,101316.06
2022-11-14T09:07:22.049Z,101326.69
2022-11-14T09:10:43.160Z,101317.88
2022-11-14T09:14:04.427Z,101311.63
2022-11-14T09:17:25.673Z,101310.66
2022-11-14T09:20:46.950Z,101317.00
2022-11-14T09:24:08.489Z,101319.13
2022-11-14T09:27:29.875Z,101310.84
2022-11-14T09:30:51.986Z,101310.97
2022-11-14T09:37:37.871Z,101307.19
2022-11-14T09:41:27.300Z,101296.06
2022-11-14T09:45:00.083Z,101303.50
2022-11-14T09:48:25.986Z,101285.59
2022-11-14T09:51:54.519Z,101293.88
2022-11-14T09:55:35.245Z,101293.09
2022-11-14T09:58:58.093Z,101282.88
2022-11-14T10:02:28.781Z,101283.06
2022-11-14T10:06:11.372Z,101284.37
2022-11-14T10:09:38.465Z,101261.47
2022-11-14T10:13:29.923Z,101277.50
2022-11-14T10:17:00.104Z,101266.19
2022-11-14T10:20:42.562Z,101253.63
2022-11-14T10:24:18.953Z,101246.34
2022-11-14T10:27:55.896Z,101250.97
2022-11-14T10:31:46.342Z,101252.25
2022-11-14T10:35:44.266Z,101241.62
2022-11-14T10:39:13.842Z,101237.41
2022-11-14T10:42:40.207Z,101239.44
2022-11-14T10:46:09.898Z,101220.41
2022-11-14T10:49:33.226Z,101235.97
2022-11-14T10:53:00.449Z,101223.16
2022-11-14T10:56:21.666Z,101222.12
2022-11-14T10:59:43.383Z,101215.84
2022-11-14T11:03:04.603Z,101212.31
2022-11-14T11:06:27.672Z,101208.34
2022-11-14T11:10:18.435Z,101207.38
2022-11-14T11:13:53.989Z,101189.47
2022-11-14T11:17:15.657Z,101153.03
2022-11-14T11:20:41.569Z,101173.88
2022-11-14T11:24:02.568Z,101176.78
2022-11-14T11:27:27.051Z,101164.62
2022-11-14T11:30:59.491Z,101165.53
2022-11-14T11:34:26.986Z,101155.97
2022-11-14T11:37:55.027Z,101146.53
2022-11-14T11:42:07.643Z,101123.91
2022-11-14T11:45:19.852Z,101154.00
2022-11-14T11:48:41.151Z,101144.09
2022-11-14T11:52:06.370Z,101134.28
2022-11-14T11:55:34.916Z,101133.38
2022-11-14T11:59:01.208Z,101114.59
2022-11-14T12:02:25.083Z,101128.28
2022-11-14T12:06:07.519Z,101127.44
2022-11-14T12:10:03.617Z,101115.81
2022-11-14T12:13:50.105Z,101100.03
2022-11-14T12:17:55.981Z,101109.94
2022-11-14T12:21:55.699Z,101098.19
2022-11-14T12:25:40.184Z,101086.41
2022-11-14T12:29:33.496Z,101094.37
2022-11-14T12:33:02.260Z,101087.09
2022-11-14T12:36:29.245Z,101086.19
2022-11-14T12:40:00.729Z,101077.22
2022-11-14T12:43:45.504Z,101078.03
2022-11-14T12:47:06.598Z,101077.09
2022-11-14T12:50:41.093Z,101074.37
2022-11-14T12:54:02.566Z,101066.28
2022-11-14T12:58:07.968Z,101064.44
2022-11-14T13:01:37.614Z,101056.34
2022-11-14T13:05:15.040Z,101057.22
2022-11-14T13:09:23.368Z,101058.97
2022-11-14T13:13:23.113Z,101056.28
2022-11-14T13:17:03.103Z,101037.34
2022-11-14T13:20:51.382Z,101066.00
2022-11-14T13:24:16.309Z,101050.75
2022-11-14T13:28:06.058Z,101042.62
2022-11-14T13:31:20.707Z,101040.78
2022-11-14T13:35:04.424Z,101041.53
2022-11-14T13:38:37.113Z,101036.97
2022-11-14T13:42:08.795Z,101034.22
2022-11-14T13:45:44.813Z,101020.78
2022-11-14T13:49:22.621Z,101015.19
2022-11-14T13:52:46.183Z,101018.75
2022-11-14T13:56:20.484Z,101021.38
2022-11-14T14:00:03.198Z,101020.59
2022-11-14T14:03:36.277Z,101023.37
2022-11-14T14:07:03.100Z,101019.87
2022-11-14T14:10:39.075Z,101014.56
2022-11-14T14:14:12.231Z,101011.91
2022-11-14T14:17:56.573Z,101012.75
2022-11-14T14:21:30.972Z,101010.84
2022-11-14T14:25:07.773Z,101006.44
2022-11-14T14:28:53.595Z,101003.59
2022-11-14T14:32:17.132Z,101008.94
2022-11-14T14:35:40.930Z,100995.50
2022-11-14T14:39:25.977Z,100997.19
2022-11-14T14:42:49.349Z,101004.28
2022-11-14T14:46:10.532Z,100994.38
2022-11-14T14:49:36.457Z,100997.03
2022-11-14T14:52:59.247Z,100984.38
2022-11-14T14:56:24.842Z,100994.31
2022-11-14T14:59:46.268Z,101007.75
2022-11-14T15:03:10.480Z,101004.16
2022-11-14T15:06:36.760Z,101003.19
2022-11-14T15:10:02.205Z,101001.38
2022-11-14T15:13:24.187Z,101006.53
2022-11-14T15:16:46.789Z,101006.50
2022-11-14T15:20:29.612Z,101001.91
2022-11-14T15:24:02.063Z,100994.69
2022-11-14T15:27:22.795Z,101001.69
2022-11-14T15:30:57.015Z,101008.84
2022-11-14T15:34:38.259Z,101014.22
2022-11-14T15:38:43.193Z,101023.16
2022-11-14T15:42:14.035Z,101033.91
2022-11-14T15:45:43.982Z,101029.38
2022-11-14T15:49:08.558Z,101019.63
2022-11-14T15:52:40.312Z,101019.59
2022-11-14T15:56:01.258Z,101015.06
2022-11-14T15:59:22.180Z,101015.09
2022-11-14T16:02:57.058Z,101018.72
2022-11-14T16:06:18.071Z,101015.03
2022-11-14T16:09:39.269Z,101015.91
2022-11-14T16:13:00.305Z,101023.87
2022-11-14T16:16:21.752Z,101013.13
2022-11-14T16:19:43.162Z,101010.34
2022-11-14T16:23:05.304Z,101012.81
2022-11-14T16:26:26.448Z,101022.59
2022-11-14T16:29:47.616Z,101006.37
2022-11-14T16:33:09.803Z,101007.28
2022-11-14T16:36:32.057Z,101017.81
2022-11-14T16:39:53.259Z,101012.41
2022-11-14T16:43:14.593Z,101012.56
2022-11-14T16:46:38.255Z,101007.19
2022-11-14T16:50:00.304Z,101009.03
2022-11-14T16:53:21.795Z,101004.59
2022-11-14T16:56:43.495Z,101007.19
2022-11-14T17:00:10.856Z,101003.59
2022-11-14T17:03:33.224Z,101005.38
2022-11-14T17:06:54.662Z,100987.59
2022-11-14T17:10:19.690Z,101003.59
2022-11-14T17:13:41.088Z,101002.63
2022-11-14T17:17:02.009Z,100994.56
2022-11-14T17:20:23.755Z,100998.19
2022-11-14T17:23:45.225Z,100992.84
2022-11-14T17:27:06.826Z,100983.03
2022-11-14T17:30:28.179Z,100979.47
2022-11-14T17:33:54.498Z,100975.06
2022-11-14T17:37:15.860Z,100975.94
2022-11-14T17:40:38.316Z,100962.56
2022-11-14T17:44:02.572Z,100970.56
2022-11-14T17:47:23.560Z,100958.09
2022-11-14T17:50:44.603Z,100972.31
2022-11-14T17:54:05.549Z,100974.09
2022-11-14T17:57:27.158Z,100967.00
2022-11-14T18:00:48.548Z,100965.22
2022-11-14T18:04:10.350Z,100973.25
2022-11-14T18:07:33.154Z,100970.50
2022-11-14T18:10:55.135Z,100966.09
2022-11-14T18:14:15.897Z,100966.09
2022-11-14T18:17:37.209Z,100955.47
2022-11-14T18:20:59.455Z,100957.28
2022-11-14T18:24:21.933Z,100953.62
2022-11-14T18:27:43.427Z,100942.06
2022-11-14T18:31:07.407Z,100938.41
2022-11-14T18:34:28.425Z,100930.34
2022-11-14T18:37:49.637Z,100934.78
2022-11-14T18:41:14.420Z,100943.72
2022-11-14T18:44:35.868Z,100941.03
2022-11-14T18:47:57.819Z,100947.22
2022-11-14T18:51:21.965Z,100944.63
2022-11-14T18:54:43.938Z,100956.16
2022-11-14T18:58:04.925Z,100950.59
2022-11-14T19:01:29.680Z,100959.37
2022-11-14T19:04:50.800Z,100949.59
2022-11-14T19:08:11.541Z,100953.13
2022-11-14T19:11:51.379Z,100946.03
2022-11-14T19:15:12.939Z,100949.63
2022-11-14T19:18:34.243Z,100936.25
2022-11-14T19:21:56.973Z,100939.84
2022-11-14T19:25:21.439Z,100938.91
2022-11-14T19:28:42.887Z,100926.47
2022-11-14T19:32:04.457Z,100933.59
2022-11-14T19:35:26.083Z,100932.69
2022-11-14T19:38:47.341Z,100923.84
2022-11-14T19:42:08.769Z,100916.75
2022-11-14T19:45:33.888Z,100921.16
2022-11-14T19:48:56.989Z,100918.44
2022-11-14T19:52:18.395Z,100912.16
2022-11-14T19:55:40.080Z,100912.19
2022-11-14T19:59:02.791Z,100916.66
2022-11-14T20:02:25.912Z,100914.91
2022-11-14T20:05:47.062Z,100913.19
2022-11-14T20:09:09.589Z,100906.06
2022-11-14T20:12:32.169Z,100906.97
2022-11-14T20:15:53.764Z,100906.97
2022-11-14T20:19:16.203Z,100906.06
2022-11-14T20:22:37.246Z,100904.31
2022-11-14T20:25:59.262Z,100914.91
2022-11-14T20:29:20.226Z,100906.94
2022-11-14T20:32:41.616Z,100910.44
2022-11-14T20:36:07.592Z,100909.47
2022-11-14T20:39:28.647Z,100905.91
2022-11-14T20:42:50.343Z,100905.94
2022-11-14T20:46:14.139Z,100904.09
2022-11-14T20:49:35.362Z,100901.53
2022-11-14T20:52:56.240Z,100894.53
2022-11-14T20:56:17.616Z,100893.66
2022-11-14T20:59:39.232Z,100876.72
2022-11-14T21:03:00.354Z,100870.59
2022-11-14T21:06:20.949Z,100870.59
2022-11-14T21:09:41.893Z,100861.56
2022-11-14T21:13:26.180Z,100865.06
2022-11-14T21:16:47.085Z,100859.66
2022-11-14T21:20:09.418Z,100864.13
2022-11-14T21:23:31.141Z,100854.31
2022-11-14T21:26:52.213Z,100857.03
2022-11-14T21:30:13.139Z,100849.81
2022-11-14T21:33:34.568Z,100855.16
2022-11-14T21:36:55.599Z,100854.31
2022-11-14T21:40:16.858Z,100863.97
2022-11-14T21:43:38.205Z,100848.84
2022-11-14T21:46:59.249Z,100852.31
2022-11-14T21:50:22.250Z,100846.09
2022-11-14T21:53:44.378Z,100860.41
2022-11-14T21:57:09.723Z,100850.59
2022-11-14T22:00:32.472Z,100844.44
2022-11-14T22:04:11.795Z,100851.63
2022-11-14T22:07:32.571Z,100853.41
2022-11-14T22:10:59.662Z,100837.41
2022-11-14T22:14:20.429Z,100853.41
2022-11-14T22:17:43.028Z,100833.84
2022-11-14T22:21:04.229Z,100832.91
2022-11-14T22:24:25.447Z,100836.34
2022-11-14T22:27:46.879Z,100833.72
2022-11-14T22:31:29.968Z,100841.69
2022-11-14T22:34:50.766Z,100828.28
2022-11-14T22:38:11.773Z,100839.03
2022-11-14T22:41:33.648Z,100844.28
2022-11-14T22:44:55.045Z,100847.00
2022-11-14T22:48:16.077Z,100834.50
2022-11-14T22:51:36.885Z,100829.19
2022-11-14T22:54:57.890Z,100827.34
2022-11-14T22:58:19.234Z,100830.91
2022-11-14T23:01:40.136Z,100830.91
2022-11-14T23:05:01.024Z,100821.94
2022-11-14T23:08:22.023Z,100821.09
2022-11-14T23:11:44.712Z,100819.25
2022-11-14T23:15:06.138Z,100810.34
2022-11-14T23:18:27.228Z,100814.78
2022-11-14T23:21:48.039Z,100812.12
2022-11-14T23:25:09.168Z,100811.22
2022-11-14T23:28:31.109Z,100812.16
2022-11-14T23:31:52.595Z,100813.97
2022-11-14T23:35:13.860Z,100797.03
2022-11-14T23:38:34.859Z,100798.78
2022-11-14T23:41:55.706Z,100795.25
2022-11-14T23:45:16.629Z,100785.47
2022-11-14T23:48:37.603Z,100782.78
2022-11-14T23:51:58.692Z,100787.22
2022-11-14T23:55:19.584Z,100783.66
2022-11-14T23:58:41.152Z,100781.88
